createdAt,value
2019-05-28T00:09:05.645Z,26.10
2019-05-28T00:19:06.342Z,27.67
2019-05-28T00:29:07.133Z,28.00
2019-05-28T00:39:07.816Z,31.80
2019-05-28T00:49:08.584Z,27.47
2019-05-28T00:59:09.366Z,29.77
2019-05-28T01:09:10.086Z,31.40
2019-05-28T01:19:11.761Z,33.53
2019-05-28T01:29:12.404Z,41.87
2019-05-28T01:39:13.118Z,28.97
2019-05-28T01:49:13.824Z,30.80
2019-05-28T01:59:14.495Z,30.87
2019-05-28T02:09:17.200Z,29.10
2019-05-28T02:19:18.921Z,28.23
2019-05-28T02:29:21.573Z,29.30
2019-05-28T02:39:28.057Z,30.73
2019-05-28T02:49:28.864Z,21.07
2019-05-28T02:59:30.937Z,25.23
2019-05-28T03:09:34.894Z,22.83
2019-05-28T03:19:36.553Z,36.80
2019-05-28T03:29:37.264Z,28.97
2019-05-28T03:39:38.540Z,29.77
2019-05-28T03:49:39.235Z,30.40
2019-05-28T03:59:39.911Z,67.33
2019-05-28T04:09:40.616Z,37.90
2019-05-28T04:19:41.273Z,158.17
2019-05-28T04:29:41.944Z,41.37
2019-05-28T04:39:43.643Z,48.70
2019-05-28T04:49:44.322Z,51.17
2019-05-28T04:59:45.022Z,46.17
2019-05-28T05:09:45.794Z,45.57
2019-05-28T05:19:46.473Z,44.07
2019-05-28T05:29:47.247Z,49.77
2019-05-28T05:39:49.084Z,39.93
2019-05-28T05:49:50.126Z,40.23
2019-05-28T05:59:50.817Z,35.50
2019-05-28T06:09:51.489Z,32.33
2019-05-28T06:19:52.241Z,33.87
2019-05-28T06:29:52.948Z,27.03
2019-05-28T06:39:53.610Z,16.97
2019-05-28T06:49:54.290Z,15.53
2019-05-28T06:59:55.524Z,15.13
2019-05-28T07:09:56.251Z,15.87
2019-05-28T07:19:56.896Z,14.47
2019-05-28T07:29:57.627Z,16.93
2019-05-28T07:39:58.422Z,18.27
2019-05-28T07:49:59.243Z,16.73
2019-05-28T08:00:05.388Z,15.10
2019-05-28T08:10:06.590Z,11.03
2019-05-28T08:20:07.459Z,12.30
2019-05-28T08:30:09.429Z,15.47
2019-05-28T08:40:10.309Z,12.23
2019-05-28T08:50:13.175Z,15.43
2019-05-28T09:00:17.653Z,16.73
2019-05-28T09:10:18.297Z,16.20
2019-05-28T09:20:19.081Z,13.90
2019-05-28T09:30:20.792Z,13.37
2019-05-28T09:40:21.733Z,15.90
2019-05-28T09:50:30.546Z,17.30
2019-05-28T10:00:25.299Z,16.47
2019-05-28T10:10:26.020Z,19.53
2019-05-28T10:20:26.964Z,27.63
2019-05-28T10:30:28.527Z,18.73
2019-05-28T10:40:29.337Z,12.53
2019-05-28T10:50:30.141Z,12.10
2019-05-28T11:00:30.915Z,15.00
2019-05-28T11:10:31.585Z,9.50
2019-05-28T11:20:33.384Z,11.37
2019-05-28T11:30:34.071Z,10.53
2019-05-28T11:40:34.700Z,7.30
2019-05-28T11:50:36.422Z,3.87
2019-05-28T12:00:37.314Z,3.47
2019-05-28T12:10:38.016Z,1.37
2019-05-28T12:20:38.680Z,4.37
2019-05-28T12:30:39.410Z,3.27
2019-05-28T12:40:47.620Z,2.87
2019-05-28T12:50:42.760Z,2.83
2019-05-28T13:00:43.420Z,3.83
2019-05-28T13:10:45.155Z,4.20
2019-05-28T13:20:48.298Z,3.23
2019-05-28T13:30:48.533Z,1.93
2019-05-28T13:40:49.214Z,3.50
2019-05-28T13:50:57.003Z,3.07
2019-05-28T14:00:57.680Z,1.73
2019-05-28T14:10:58.336Z,0.90
2019-05-28T14:20:59.140Z,1.70
2019-05-28T14:31:00.825Z,1.43
2019-05-28T14:41:01.997Z,1.50
2019-05-28T14:51:02.782Z,1.50
2019-05-28T15:01:03.573Z,1.97
2019-05-28T15:11:04.333Z,0.97
2019-05-28T15:21:10.809Z,1.60
2019-05-28T15:31:12.534Z,2.70
2019-05-28T15:41:28.983Z,1.97
2019-05-28T15:51:29.627Z,1.90
2019-05-28T16:01:31.471Z,0.83
2019-05-28T16:11:34.374Z,0.80
2019-05-28T16:21:38.379Z,1.77
2019-05-28T16:31:48.993Z,1.13
2019-05-28T16:41:53.789Z,1.97
2019-05-28T16:51:54.525Z,0.80
2019-05-28T17:01:55.226Z,1.70
2019-05-28T17:11:56.004Z,0.40
2019-05-28T17:21:56.823Z,1.57
2019-05-28T17:31:57.559Z,1.13
2019-05-28T17:41:58.317Z,3.53
2019-05-28T17:51:59.127Z,3.70
2019-05-28T18:01:59.802Z,2.50
2019-05-28T18:12:00.491Z,3.17
2019-05-28T18:22:01.395Z,2.23
2019-05-28T18:32:02.288Z,4.23
2019-05-28T18:42:03.332Z,3.03
2019-05-28T18:52:04.012Z,2.10
2019-05-28T19:02:04.873Z,2.00
2019-05-28T19:12:05.571Z,3.53
2019-05-28T19:22:06.242Z,2.20
2019-05-28T19:32:07.024Z,2.43
2019-05-28T19:42:09.942Z,2.33
2019-05-28T19:52:10.409Z,2.60
2019-05-28T20:02:11.189Z,3.33
2019-05-28T20:12:13.170Z,3.60
2019-05-28T20:22:14.020Z,6.20
2019-05-28T20:32:16.669Z,4.47
2019-05-28T20:42:27.383Z,5.03
2019-05-28T20:52:21.950Z,3.83
2019-05-28T21:02:22.621Z,5.17
2019-05-28T21:12:23.291Z,4.57
2019-05-28T21:22:27.039Z,6.30
2019-05-28T21:32:27.548Z,8.23
2019-05-28T21:42:28.298Z,7.77
2019-05-28T21:52:28.948Z,8.37
2019-05-28T22:02:32.768Z,8.50
2019-05-28T22:12:39.801Z,9.43
2019-05-28T22:22:40.646Z,11.87
2019-05-28T22:32:41.413Z,11.37
2019-05-28T22:42:43.119Z,10.23
2019-05-28T22:52:43.817Z,9.93
2019-05-28T23:02:44.481Z,9.03
2019-05-28T23:12:45.140Z,5.37
2019-05-28T23:22:46.890Z,5.83
2019-05-28T23:32:47.548Z,8.13
2019-05-28T23:42:48.304Z,7.93
2019-05-28T23:52:48.980Z,5.53
